Irini — SYZA — position and weather

sailwx.info

Track history (hours):
 
Tides and Currents Weather Stations Pressure Air Temp Water Temp Dewpoint Dewpoint Depression Visibility Wind Speed Wind Dir Waves Ship Positions

Irini

Last reported at 2018-Jun-16 14:08 UTC. Time now 2018-Jun-20 15:29 UTC.
Position N 37°17' E 023°39'.

Length 137 m; draft 7.3 m.

Type: Ship (hazmat cat A). MMSI: 240052000.

Date/timePositionNaut miles runAvg speedWind from/ knotsBaromVisibWave heightAir tempDewpointWater temp
2018-Jun-16 14:08N 37°17' E 023°39'110.4
2018-Jun-16 14:00N 37°18' E 023°39'710.3
2018-Jun-16 13:19N 37°25' E 023°40'310.1
2018-Jun-16 13:00N 37°28' E 023°41'510.1
2018-Jun-16 12:30N 37°33' E 023°42'510.2
2018-Jun-16 12:00N 37°39' E 023°42'510.4
2018-Jun-16 11:30N 37°43' E 023°40'510.0
2018-Jun-16 11:00N 37°48' E 023°38'5 9.7
2018-Jun-16 10:30N 37°53' E 023°37'4 8.4
2018-Jun-16 10:00N 37°57' E 023°36'4 7.6
2018-Jun-16 09:30N 38°00' E 023°33'2 4.9
2018-Jun-16 09:00N 38°02' E 023°36'0 0.0
2018-Jun-16 08:30N 38°02' E 023°36'0 0.0
2018-Jun-16 01:48N 38°02' E 023°36'0 0.0
2018-Jun-16 00:30N 38°02' E 023°36'0 0.0
2018-Jun-16 00:00N 38°02' E 023°36'0 0.0
2018-Jun-15 22:48N 38°02' E 023°36'0 0.0
2018-Jun-15 22:30N 38°02' E 023°36'0 0.0
2018-Jun-15 21:24N 38°02' E 023°36'0 0.0
2018-Jun-15 19:48N 38°02' E 023°36'0 0.0
2018-Jun-15 17:42N 38°02' E 023°36'0 0.0
2018-Jun-15 17:18N 38°02' E 023°36'0 0.0
2018-Jun-15 16:57N 38°02' E 023°36'0 0.0
2018-Jun-15 16:21N 38°02' E 023°36'0 0.0
2018-Jun-15 16:00N 38°01' E 023°36'0 0.0
2018-Jun-15 15:24N 38°01' E 023°36'0 0.0
2018-Jun-15 14:57N 38°02' E 023°36'0 0.0
2018-Jun-15 14:27N 38°02' E 023°36'0 0.0
2018-Jun-15 13:54N 38°02' E 023°36'0 0.0
2018-Jun-15 13:27N 38°01' E 023°36'0 0.0
2018-Jun-15 12:57N 38°01' E 023°36'0 0.0
2018-Jun-15 12:24N 38°02' E 023°36'0 0.0
2018-Jun-15 12:00N 38°02' E 023°36'0 0.0
2018-Jun-15 11:21N 38°02' E 023°36'0 0.0
2018-Jun-15 11:00N 38°02' E 023°36'0 0.0
2018-Jun-15 10:21N 38°01' E 023°36'0 0.0
2018-Jun-15 09:51N 38°02' E 023°36'0 0.0
2018-Jun-15 09:30N 38°01' E 023°36'0 0.5
2018-Jun-15 09:00N 38°02' E 023°35'3 5.3
2018-Jun-15 08:30N 38°01' E 023°32'1 1.1
2018-Jun-15 07:58N 38°02' E 023°31'0 0.1
2018-Jun-15 07:28N 38°02' E 023°31'0 0.0
2018-Jun-15 06:58N 38°02' E 023°31'0 0.0
2018-Jun-15 06:22N 38°02' E 023°31'0 0.0
2018-Jun-15 05:58N 38°02' E 023°31'0 0.0
2018-Jun-15 05:28N 38°02' E 023°31'0 0.1
2018-Jun-15 04:58N 38°02' E 023°31'0 0.0
2018-Jun-15 04:28N 38°02' E 023°31'0 0.1
2018-Jun-15 03:58N 38°02' E 023°31'0 0.1
2018-Jun-15 03:28N 38°02' E 023°31'0 0.0
2018-Jun-15 02:58N 38°02' E 023°31'0 0.1
2018-Jun-15 02:28N 38°02' E 023°31'0 0.2
2018-Jun-15 01:58N 38°02' E 023°31'0 0.0
2018-Jun-15 01:28N 38°02' E 023°31'0 0.1
2018-Jun-15 00:58N 38°02' E 023°31'0 0.0
2018-Jun-15 00:28N 38°02' E 023°31'0 0.2
2018-Jun-14 23:58N 38°02' E 023°31'0 0.1
2018-Jun-14 23:28N 38°02' E 023°31'0 0.0
2018-Jun-14 22:58N 38°02' E 023°31'0 0.0
2018-Jun-14 22:28N 38°02' E 023°32'0 0.0
2018-Jun-14 21:58N 38°02' E 023°32'0 0.0
2018-Jun-14 21:28N 38°02' E 023°32'0 0.1
2018-Jun-14 20:58N 38°02' E 023°32'0 0.0
2018-Jun-14 20:28N 38°02' E 023°32'0 0.0
2018-Jun-14 19:58N 38°02' E 023°32'0 0.0
2018-Jun-14 19:28N 38°02' E 023°32'0 0.0
2018-Jun-14 18:58N 38°02' E 023°32'0 0.1
2018-Jun-14 18:28N 38°02' E 023°32'0 0.1
2018-Jun-14 17:58N 38°02' E 023°32'0 0.0
2018-Jun-14 17:28N 38°02' E 023°32'0 0.1
2018-Jun-14 16:58N 38°02' E 023°32'0 0.0
2018-Jun-14 16:28N 38°02' E 023°32'0 0.0
2018-Jun-14 15:58N 38°02' E 023°31'0 0.0
2018-Jun-14 15:28N 38°02' E 023°32'0 0.0
2018-Jun-14 14:58N 38°02' E 023°31'0 0.0
2018-Jun-14 14:28N 38°02' E 023°31'0 0.0
2018-Jun-14 13:58N 38°02' E 023°31'0 0.1
2018-Jun-14 13:28N 38°02' E 023°31'0 0.0
2018-Jun-14 12:58N 38°02' E 023°31'0 0.2
2018-Jun-14 12:28N 38°02' E 023°31'0 0.0
2018-Jun-14 11:58N 38°02' E 023°31'0 0.0
2018-Jun-14 11:28N 38°02' E 023°31'0 0.0
2018-Jun-14 10:58N 38°02' E 023°31'0 0.0
2018-Jun-14 10:28N 38°02' E 023°32'0 0.0
2018-Jun-14 09:58N 38°02' E 023°32'0 0.1
2018-Jun-14 09:28N 38°02' E 023°31'0 0.1
2018-Jun-14 08:58N 38°02' E 023°31'0 0.0
2018-Jun-14 08:28N 38°02' E 023°31'0 0.0
2018-Jun-14 07:58N 38°02' E 023°31'0 0.0
2018-Jun-14 07:28N 38°02' E 023°31'0 0.0
2018-Jun-14 06:58N 38°02' E 023°31'0 0.2
2018-Jun-14 06:28N 38°02' E 023°31'0 0.1
2018-Jun-14 05:58N 38°02' E 023°31'0 0.1
2018-Jun-14 05:28N 38°02' E 023°31'0 0.1
2018-Jun-14 04:58N 38°02' E 023°31'0 0.1
2018-Jun-14 04:28N 38°02' E 023°31'0 0.0
2018-Jun-14 03:58N 38°02' E 023°31'0 0.0
2018-Jun-14 03:28N 38°02' E 023°31'0 0.0
2018-Jun-14 02:58N 38°02' E 023°31'0 0.1
2018-Jun-14 02:28N 38°02' E 023°31'0 0.1
2018-Jun-14 01:58N 38°02' E 023°31'0 0.2
2018-Jun-14 01:28N 38°02' E 023°31'0 0.1
2018-Jun-14 00:58N 38°02' E 023°31'0 0.1
2018-Jun-14 00:28N 38°02' E 023°31'0 0.0
2018-Jun-13 23:58N 38°02' E 023°31'0 0.0
2018-Jun-13 23:28N 38°02' E 023°31'0 0.0
2018-Jun-13 22:58N 38°02' E 023°31'0 0.0
2018-Jun-13 22:28N 38°02' E 023°31'0 0.1
2018-Jun-13 21:58N 38°02' E 023°31'0 0.1
2018-Jun-13 21:28N 38°02' E 023°31'0 0.0
2018-Jun-13 20:58N 38°02' E 023°31'0 0.0
2018-Jun-13 20:28N 38°02' E 023°31'0 0.1
2018-Jun-13 19:58N 38°02' E 023°31'0 0.1
2018-Jun-13 19:28N 38°02' E 023°31'0 0.0
2018-Jun-13 18:58N 38°02' E 023°31'0 0.0
2018-Jun-13 18:28N 38°02' E 023°31'0 0.0
2018-Jun-13 17:58N 38°02' E 023°31'0 0.0
2018-Jun-13 17:28N 38°02' E 023°31'0 0.0
2018-Jun-13 16:58N 38°02' E 023°31'0 0.0
2018-Jun-13 16:28N 38°02' E 023°31'0 0.0
2018-Jun-13 15:58N 38°02' E 023°31'0 0.1
2018-Jun-13 15:28N 38°02' E 023°31'0 0.0
2018-Jun-13 14:58N 38°02' E 023°31'0 0.0
2018-Jun-13 14:28N 38°02' E 023°31'0 0.0
2018-Jun-13 13:58N 38°02' E 023°31'0 0.0
2018-Jun-13 13:28N 38°02' E 023°31'0 0.1
2018-Jun-13 12:58N 38°02' E 023°31'0 0.0
2018-Jun-13 12:28N 38°02' E 023°31'0 0.0
2018-Jun-13 11:58N 38°02' E 023°31'0 0.0
2018-Jun-13 11:28N 38°02' E 023°31'0 0.0
2018-Jun-13 10:58N 38°02' E 023°31'0 0.0
2018-Jun-13 10:28N 38°02' E 023°31'0 0.0
2018-Jun-13 09:58N 38°02' E 023°31'0 0.0
2018-Jun-13 09:28N 38°02' E 023°31'0 0.1
2018-Jun-13 08:58N 38°02' E 023°31'0 0.0
2018-Jun-13 08:28N 38°02' E 023°31'0 0.1
2018-Jun-13 07:58N 38°02' E 023°31'0 0.0
2018-Jun-13 07:28N 38°02' E 023°31'0 0.1
2018-Jun-13 06:58N 38°02' E 023°31'0 0.0
2018-Jun-13 06:28N 38°02' E 023°31'0 0.0
2018-Jun-13 05:58N 38°02' E 023°31'0 0.1
2018-Jun-13 05:28N 38°02' E 023°31'0 0.0
2018-Jun-13 04:58N 38°02' E 023°31'0 0.0
2018-Jun-13 04:28N 38°02' E 023°31'0 0.0
2018-Jun-13 03:58N 38°02' E 023°31'0 0.0
2018-Jun-13 03:28N 38°02' E 023°31'0 0.0
2018-Jun-13 02:58N 38°02' E 023°31'0 0.1
2018-Jun-13 02:28N 38°02' E 023°31'0 0.1
2018-Jun-13 01:58N 38°02' E 023°31'0 0.0
2018-Jun-13 01:28N 38°02' E 023°31'0 0.0
2018-Jun-13 00:58N 38°02' E 023°31'0 0.0
2018-Jun-13 00:28N 38°02' E 023°31'0 0.0
2018-Jun-12 23:58N 38°02' E 023°31'0 0.0
2018-Jun-12 23:28N 38°02' E 023°31'0 0.0
2018-Jun-12 22:58N 38°02' E 023°31'0 0.0
2018-Jun-12 22:28N 38°02' E 023°31'0 0.0
2018-Jun-12 21:58N 38°02' E 023°31'0 0.1
2018-Jun-12 21:28N 38°02' E 023°31'0 0.1
2018-Jun-12 20:58N 38°02' E 023°32'0 0.0
2018-Jun-12 20:28N 38°02' E 023°31'0 0.0
2018-Jun-12 19:58N 38°02' E 023°31'0 0.0
2018-Jun-12 19:28N 38°02' E 023°31'0 0.0
2018-Jun-12 18:58N 38°02' E 023°31'0 0.0
2018-Jun-12 18:28N 38°02' E 023°31'0 0.0
2018-Jun-12 17:58N 38°02' E 023°31'0 0.0
2018-Jun-12 17:28N 38°02' E 023°31'0 0.0
2018-Jun-12 16:58N 38°02' E 023°32'0 0.1
2018-Jun-12 16:28N 38°02' E 023°31'0 0.0
2018-Jun-12 15:58N 38°02' E 023°31'0 0.0
2018-Jun-12 15:28N 38°02' E 023°31'0 0.1
2018-Jun-12 14:58N 38°02' E 023°31'0 0.0
2018-Jun-12 14:28N 38°02' E 023°31'0 0.0
2018-Jun-12 13:58N 38°02' E 023°31'0 0.0
2018-Jun-12 13:28N 38°02' E 023°31'0 0.1
2018-Jun-12 12:58N 38°02' E 023°31'0 0.1
2018-Jun-12 12:28N 38°02' E 023°31'0 0.2
2018-Jun-12 11:58N 38°02' E 023°31'0 0.1
2018-Jun-12 11:28N 38°02' E 023°31'0 0.0
2018-Jun-12 10:58N 38°02' E 023°31'0 0.1
2018-Jun-12 10:28N 38°02' E 023°31'0 0.1
2018-Jun-12 09:58N 38°02' E 023°31'0 0.0
2018-Jun-12 09:28N 38°02' E 023°31'0 0.0
2018-Jun-12 08:58N 38°02' E 023°31'0 0.0
2018-Jun-12 08:28N 38°02' E 023°31'0 0.0
2018-Jun-12 07:58N 38°02' E 023°31'0 0.0
2018-Jun-12 07:28N 38°02' E 023°31'0 0.0
2018-Jun-12 06:58N 38°02' E 023°31'0 0.0
2018-Jun-12 06:28N 38°02' E 023°31'0 0.0
2018-Jun-12 05:58N 38°02' E 023°31'1 1.3
2018-Jun-12 05:30N 38°01' E 023°32'4 8.3
2018-Jun-12 05:00N 37°57' E 023°34'3 6.9
2018-Jun-12 04:30N 37°54' E 023°35'4 8.5
2018-Jun-12 04:00N 37°51' E 023°38'510.0
2018-Jun-12 03:30N 37°46' E 023°41'5 9.6
2018-Jun-12 03:00N 37°42' E 023°44'5 9.5
2018-Jun-12 02:30N 37°39' E 023°49'22 9.8
2018-Jun-12 00:14N 37°43' E 024°17'  
2018-Jun-09 04:50N 38°52' E 024°00'710.3
2018-Jun-09 04:11N 38°48' E 024°07'5 9.9
2018-Jun-09 03:44N 38°45' E 024°12'3 9.8
2018-Jun-09 03:26N 38°44' E 024°15'14 9.6
2018-Jun-09 02:00N 38°32' E 024°25'57 8.5
2018-Jun-08 19:18N 37°37' E 024°05'310.9
2018-Jun-08 19:00N 37°37' E 024°01'510.7
2018-Jun-08 18:30N 37°37' E 023°54'510.4
2018-Jun-08 18:01N 37°38' E 023°48'510.1
2018-Jun-08 17:31N 37°40' E 023°43'510.1
2018-Jun-08 17:01N 37°45' E 023°40'510.1
2018-Jun-08 16:30N 37°50' E 023°37'510.0
2018-Jun-08 16:01N 37°54' E 023°37'4 8.3
2018-Jun-08 15:30N 37°57' E 023°33'4 7.9
2018-Jun-08 15:01N 38°01' E 023°35'0 0.2
2018-Jun-08 12:09N 38°01' E 023°36'0 0.0
2018-Jun-08 06:24N 38°01' E 023°36'0 0.0
2018-Jun-08 04:18N 38°01' E 023°36'0 0.0
2018-Jun-08 02:36N 38°01' E 023°36'0 0.0
2018-Jun-07 22:48N 38°01' E 023°36'0 0.0
2018-Jun-07 19:51N 38°01' E 023°36'0 0.0
2018-Jun-07 19:21N 38°01' E 023°36'0 0.0
2018-Jun-07 18:57N 38°01' E 023°36'0 0.0
2018-Jun-07 17:57N 38°01' E 023°36'0 0.0
2018-Jun-07 17:12N 38°01' E 023°36'0 0.0
2018-Jun-07 16:54N 38°01' E 023°36'0 0.0
2018-Jun-07 15:51N 38°01' E 023°36'0 0.0
2018-Jun-07 15:12N 38°01' E 023°36'0 0.0
2018-Jun-07 14:57N 38°01' E 023°36'0 0.0
2018-Jun-07 14:30N 38°01' E 023°36'0 0.0
2018-Jun-07 13:57N 38°01' E 023°36'0 0.0
2018-Jun-07 13:30N 38°01' E 023°36'0 0.0
2018-Jun-07 12:54N 38°01' E 023°36'0 0.0
2018-Jun-07 12:27N 38°01' E 023°36'0 0.0
2018-Jun-07 11:54N 38°01' E 023°36'0 0.0
2018-Jun-07 11:24N 38°01' E 023°36'0 0.0
2018-Jun-07 09:48N 38°01' E 023°36'0 0.0
2018-Jun-07 07:33N 38°01' E 023°36'0 1.5
2018-Jun-07 07:27N 38°01' E 023°35'0 0.6
2018-Jun-07 06:56N 38°02' E 023°36'0 0.0
2018-Jun-07 06:17N 38°01' E 023°36'0 0.0
2018-Jun-07 05:59N 38°02' E 023°36'0 0.0
2018-Jun-07 05:29N 38°02' E 023°36'0 0.0
2018-Jun-07 04:59N 38°02' E 023°36'0 0.0
2018-Jun-07 04:11N 38°02' E 023°36'0 0.0
2018-Jun-07 03:59N 38°02' E 023°36'0 0.0
2018-Jun-07 03:20N 38°02' E 023°36'0 0.0
2018-Jun-07 02:56N 38°02' E 023°36'0 0.0
2018-Jun-07 01:29N 38°02' E 023°36'0 0.0
2018-Jun-07 00:56N 38°02' E 023°36'0 0.0
2018-Jun-07 00:20N 38°02' E 023°36'0 0.0
2018-Jun-06 23:53N 38°02' E 023°36'0 0.0
2018-Jun-06 23:20N 38°01' E 023°36'0 0.0
2018-Jun-06 22:56N 38°02' E 023°36'0 0.0
2018-Jun-06 22:29N 38°02' E 023°36'0 0.0
2018-Jun-06 21:59N 38°02' E 023°36'0 0.0
2018-Jun-06 20:38N 38°01' E 023°36'0 0.0
2018-Jun-06 20:20N 38°02' E 023°36'0 0.0
2018-Jun-06 19:59N 38°02' E 023°36'0 0.0
2018-Jun-06 19:05N 38°02' E 023°36'0 0.0
2018-Jun-06 18:35N 38°02' E 023°36'0 0.0
2018-Jun-06 18:29N 38°02' E 023°36'0 0.0
2018-Jun-06 17:59N 38°02' E 023°36'0 0.0
2018-Jun-06 17:15N 38°02' E 023°36'0 0.7
2018-Jun-06 17:00N 38°02' E 023°35'4 7.1
2018-Jun-06 16:30N 37°59' E 023°33'4 8.1
2018-Jun-06 16:00N 37°55' E 023°36'0 0.5
2018-Jun-06 15:30N 37°55' E 023°36'0 0.2
2018-Jun-06 15:00N 37°55' E 023°36'0 0.2
2018-Jun-06 14:30N 37°55' E 023°36'  
Track history (hours):
 
Tides and Currents Weather Stations Pressure Air Temp Water Temp Dewpoint Dewpoint Depression Visibility Wind Speed Wind Dir Waves Ship Positions

Irini

Last reported at 2018-Jun-16 14:08 UTC. Time now 2018-Jun-20 15:29 UTC.
Position N 37°17' E 023°39'.

Length 137 m; draft 7.3 m.

Type: Ship (hazmat cat A). MMSI: 240052000.

Date/timePositionNaut miles runAvg speedWind from/ knotsBaromVisibWave heightAir tempDewpointWater temp
2018-Jun-16 14:08N 37°17' E 023°39'110.4
2018-Jun-16 14:00N 37°18' E 023°39'710.3
2018-Jun-16 13:19N 37°25' E 023°40'310.1
2018-Jun-16 13:00N 37°28' E 023°41'510.1
2018-Jun-16 12:30N 37°33' E 023°42'510.2
2018-Jun-16 12:00N 37°39' E 023°42'510.4
2018-Jun-16 11:30N 37°43' E 023°40'510.0
2018-Jun-16 11:00N 37°48' E 023°38'5 9.7
2018-Jun-16 10:30N 37°53' E 023°37'4 8.4
2018-Jun-16 10:00N 37°57' E 023°36'4 7.6
2018-Jun-16 09:30N 38°00' E 023°33'2 4.9
2018-Jun-16 09:00N 38°02' E 023°36'0 0.0
2018-Jun-16 08:30N 38°02' E 023°36'0 0.0
2018-Jun-16 01:48N 38°02' E 023°36'0 0.0
2018-Jun-16 00:30N 38°02' E 023°36'0 0.0
2018-Jun-16 00:00N 38°02' E 023°36'0 0.0
2018-Jun-15 22:48N 38°02' E 023°36'0 0.0
2018-Jun-15 22:30N 38°02' E 023°36'0 0.0
2018-Jun-15 21:24N 38°02' E 023°36'0 0.0
2018-Jun-15 19:48N 38°02' E 023°36'0 0.0
2018-Jun-15 17:42N 38°02' E 023°36'0 0.0
2018-Jun-15 17:18N 38°02' E 023°36'0 0.0
2018-Jun-15 16:57N 38°02' E 023°36'0 0.0
2018-Jun-15 16:21N 38°02' E 023°36'0 0.0
2018-Jun-15 16:00N 38°01' E 023°36'0 0.0
2018-Jun-15 15:24N 38°01' E 023°36'0 0.0
2018-Jun-15 14:57N 38°02' E 023°36'0 0.0
2018-Jun-15 14:27N 38°02' E 023°36'0 0.0
2018-Jun-15 13:54N 38°02' E 023°36'0 0.0
2018-Jun-15 13:27N 38°01' E 023°36'0 0.0
2018-Jun-15 12:57N 38°01' E 023°36'0 0.0
2018-Jun-15 12:24N 38°02' E 023°36'0 0.0
2018-Jun-15 12:00N 38°02' E 023°36'0 0.0
2018-Jun-15 11:21N 38°02' E 023°36'0 0.0
2018-Jun-15 11:00N 38°02' E 023°36'0 0.0
2018-Jun-15 10:21N 38°01' E 023°36'0 0.0
2018-Jun-15 09:51N 38°02' E 023°36'0 0.0
2018-Jun-15 09:30N 38°01' E 023°36'0 0.5
2018-Jun-15 09:00N 38°02' E 023°35'3 5.3
2018-Jun-15 08:30N 38°01' E 023°32'1 1.1
2018-Jun-15 07:58N 38°02' E 023°31'0 0.1
2018-Jun-15 07:28N 38°02' E 023°31'0 0.0
2018-Jun-15 06:58N 38°02' E 023°31'0 0.0
2018-Jun-15 06:22N 38°02' E 023°31'0 0.0
2018-Jun-15 05:58N 38°02' E 023°31'0 0.0
2018-Jun-15 05:28N 38°02' E 023°31'0 0.1
2018-Jun-15 04:58N 38°02' E 023°31'0 0.0
2018-Jun-15 04:28N 38°02' E 023°31'0 0.1
2018-Jun-15 03:58N 38°02' E 023°31'0 0.1
2018-Jun-15 03:28N 38°02' E 023°31'0 0.0
2018-Jun-15 02:58N 38°02' E 023°31'0 0.1
2018-Jun-15 02:28N 38°02' E 023°31'0 0.2
2018-Jun-15 01:58N 38°02' E 023°31'0 0.0
2018-Jun-15 01:28N 38°02' E 023°31'0 0.1
2018-Jun-15 00:58N 38°02' E 023°31'0 0.0
2018-Jun-15 00:28N 38°02' E 023°31'0 0.2
2018-Jun-14 23:58N 38°02' E 023°31'0 0.1
2018-Jun-14 23:28N 38°02' E 023°31'0 0.0
2018-Jun-14 22:58N 38°02' E 023°31'0 0.0
2018-Jun-14 22:28N 38°02' E 023°32'0 0.0
2018-Jun-14 21:58N 38°02' E 023°32'0 0.0
2018-Jun-14 21:28N 38°02' E 023°32'0 0.1
2018-Jun-14 20:58N 38°02' E 023°32'0 0.0
2018-Jun-14 20:28N 38°02' E 023°32'0 0.0
2018-Jun-14 19:58N 38°02' E 023°32'0 0.0
2018-Jun-14 19:28N 38°02' E 023°32'0 0.0
2018-Jun-14 18:58N 38°02' E 023°32'0 0.1
2018-Jun-14 18:28N 38°02' E 023°32'0 0.1
2018-Jun-14 17:58N 38°02' E 023°32'0 0.0
2018-Jun-14 17:28N 38°02' E 023°32'0 0.1
2018-Jun-14 16:58N 38°02' E 023°32'0 0.0
2018-Jun-14 16:28N 38°02' E 023°32'0 0.0
2018-Jun-14 15:58N 38°02' E 023°31'0 0.0
2018-Jun-14 15:28N 38°02' E 023°32'0 0.0
2018-Jun-14 14:58N 38°02' E 023°31'0 0.0
2018-Jun-14 14:28N 38°02' E 023°31'0 0.0
2018-Jun-14 13:58N 38°02' E 023°31'0 0.1
2018-Jun-14 13:28N 38°02' E 023°31'0 0.0
2018-Jun-14 12:58N 38°02' E 023°31'0 0.2
2018-Jun-14 12:28N 38°02' E 023°31'0 0.0
2018-Jun-14 11:58N 38°02' E 023°31'0 0.0
2018-Jun-14 11:28N 38°02' E 023°31'0 0.0
2018-Jun-14 10:58N 38°02' E 023°31'0 0.0
2018-Jun-14 10:28N 38°02' E 023°32'0 0.0
2018-Jun-14 09:58N 38°02' E 023°32'0 0.1
2018-Jun-14 09:28N 38°02' E 023°31'0 0.1
2018-Jun-14 08:58N 38°02' E 023°31'0 0.0
2018-Jun-14 08:28N 38°02' E 023°31'0 0.0
2018-Jun-14 07:58N 38°02' E 023°31'0 0.0
2018-Jun-14 07:28N 38°02' E 023°31'0 0.0
2018-Jun-14 06:58N 38°02' E 023°31'0 0.2
2018-Jun-14 06:28N 38°02' E 023°31'0 0.1
2018-Jun-14 05:58N 38°02' E 023°31'0 0.1
2018-Jun-14 05:28N 38°02' E 023°31'0 0.1
2018-Jun-14 04:58N 38°02' E 023°31'0 0.1
2018-Jun-14 04:28N 38°02' E 023°31'0 0.0
2018-Jun-14 03:58N 38°02' E 023°31'0 0.0
2018-Jun-14 03:28N 38°02' E 023°31'0 0.0
2018-Jun-14 02:58N 38°02' E 023°31'0 0.1
2018-Jun-14 02:28N 38°02' E 023°31'0 0.1
2018-Jun-14 01:58N 38°02' E 023°31'0 0.2
2018-Jun-14 01:28N 38°02' E 023°31'0 0.1
2018-Jun-14 00:58N 38°02' E 023°31'0 0.1
2018-Jun-14 00:28N 38°02' E 023°31'0 0.0
2018-Jun-13 23:58N 38°02' E 023°31'0 0.0
2018-Jun-13 23:28N 38°02' E 023°31'0 0.0
2018-Jun-13 22:58N 38°02' E 023°31'0 0.0
2018-Jun-13 22:28N 38°02' E 023°31'0 0.1
2018-Jun-13 21:58N 38°02' E 023°31'0 0.1
2018-Jun-13 21:28N 38°02' E 023°31'0 0.0
2018-Jun-13 20:58N 38°02' E 023°31'0 0.0
2018-Jun-13 20:28N 38°02' E 023°31'0 0.1
2018-Jun-13 19:58N 38°02' E 023°31'0 0.1
2018-Jun-13 19:28N 38°02' E 023°31'0 0.0
2018-Jun-13 18:58N 38°02' E 023°31'0 0.0
2018-Jun-13 18:28N 38°02' E 023°31'0 0.0
2018-Jun-13 17:58N 38°02' E 023°31'0 0.0
2018-Jun-13 17:28N 38°02' E 023°31'0 0.0
2018-Jun-13 16:58N 38°02' E 023°31'0 0.0
2018-Jun-13 16:28N 38°02' E 023°31'0 0.0
2018-Jun-13 15:58N 38°02' E 023°31'0 0.1
2018-Jun-13 15:28N 38°02' E 023°31'0 0.0
2018-Jun-13 14:58N 38°02' E 023°31'0 0.0
2018-Jun-13 14:28N 38°02' E 023°31'0 0.0
2018-Jun-13 13:58N 38°02' E 023°31'0 0.0
2018-Jun-13 13:28N 38°02' E 023°31'0 0.1
2018-Jun-13 12:58N 38°02' E 023°31'0 0.0
2018-Jun-13 12:28N 38°02' E 023°31'0 0.0
2018-Jun-13 11:58N 38°02' E 023°31'0 0.0
2018-Jun-13 11:28N 38°02' E 023°31'0 0.0
2018-Jun-13 10:58N 38°02' E 023°31'0 0.0
2018-Jun-13 10:28N 38°02' E 023°31'0 0.0
2018-Jun-13 09:58N 38°02' E 023°31'0 0.0
2018-Jun-13 09:28N 38°02' E 023°31'0 0.1
2018-Jun-13 08:58N 38°02' E 023°31'0 0.0
2018-Jun-13 08:28N 38°02' E 023°31'0 0.1
2018-Jun-13 07:58N 38°02' E 023°31'0 0.0
2018-Jun-13 07:28N 38°02' E 023°31'0 0.1
2018-Jun-13 06:58N 38°02' E 023°31'0 0.0
2018-Jun-13 06:28N 38°02' E 023°31'0 0.0
2018-Jun-13 05:58N 38°02' E 023°31'0 0.1
2018-Jun-13 05:28N 38°02' E 023°31'0 0.0
2018-Jun-13 04:58N 38°02' E 023°31'0 0.0
2018-Jun-13 04:28N 38°02' E 023°31'0 0.0
2018-Jun-13 03:58N 38°02' E 023°31'0 0.0
2018-Jun-13 03:28N 38°02' E 023°31'0 0.0
2018-Jun-13 02:58N 38°02' E 023°31'0 0.1
2018-Jun-13 02:28N 38°02' E 023°31'0 0.1
2018-Jun-13 01:58N 38°02' E 023°31'0 0.0
2018-Jun-13 01:28N 38°02' E 023°31'0 0.0
2018-Jun-13 00:58N 38°02' E 023°31'0 0.0
2018-Jun-13 00:28N 38°02' E 023°31'0 0.0
2018-Jun-12 23:58N 38°02' E 023°31'0 0.0
2018-Jun-12 23:28N 38°02' E 023°31'0 0.0
2018-Jun-12 22:58N 38°02' E 023°31'0 0.0
2018-Jun-12 22:28N 38°02' E 023°31'0 0.0
2018-Jun-12 21:58N 38°02' E 023°31'0 0.1
2018-Jun-12 21:28N 38°02' E 023°31'0 0.1
2018-Jun-12 20:58N 38°02' E 023°32'0 0.0
2018-Jun-12 20:28N 38°02' E 023°31'0 0.0
2018-Jun-12 19:58N 38°02' E 023°31'0 0.0
2018-Jun-12 19:28N 38°02' E 023°31'0 0.0
2018-Jun-12 18:58N 38°02' E 023°31'0 0.0
2018-Jun-12 18:28N 38°02' E 023°31'0 0.0
2018-Jun-12 17:58N 38°02' E 023°31'0 0.0
2018-Jun-12 17:28N 38°02' E 023°31'0 0.0
2018-Jun-12 16:58N 38°02' E 023°32'0 0.1
2018-Jun-12 16:28N 38°02' E 023°31'0 0.0
2018-Jun-12 15:58N 38°02' E 023°31'0 0.0
2018-Jun-12 15:28N 38°02' E 023°31'0 0.1
2018-Jun-12 14:58N 38°02' E 023°31'0 0.0
2018-Jun-12 14:28N 38°02' E 023°31'0 0.0
2018-Jun-12 13:58N 38°02' E 023°31'0 0.0
2018-Jun-12 13:28N 38°02' E 023°31'0 0.1
2018-Jun-12 12:58N 38°02' E 023°31'0 0.1
2018-Jun-12 12:28N 38°02' E 023°31'0 0.2
2018-Jun-12 11:58N 38°02' E 023°31'0 0.1
2018-Jun-12 11:28N 38°02' E 023°31'0 0.0
2018-Jun-12 10:58N 38°02' E 023°31'0 0.1
2018-Jun-12 10:28N 38°02' E 023°31'0 0.1
2018-Jun-12 09:58N 38°02' E 023°31'0 0.0
2018-Jun-12 09:28N 38°02' E 023°31'0 0.0
2018-Jun-12 08:58N 38°02' E 023°31'0 0.0
2018-Jun-12 08:28N 38°02' E 023°31'0 0.0
2018-Jun-12 07:58N 38°02' E 023°31'0 0.0
2018-Jun-12 07:28N 38°02' E 023°31'0 0.0
2018-Jun-12 06:58N 38°02' E 023°31'0 0.0
2018-Jun-12 06:28N 38°02' E 023°31'0 0.0
2018-Jun-12 05:58N 38°02' E 023°31'1 1.3
2018-Jun-12 05:30N 38°01' E 023°32'4 8.3
2018-Jun-12 05:00N 37°57' E 023°34'3 6.9
2018-Jun-12 04:30N 37°54' E 023°35'4 8.5
2018-Jun-12 04:00N 37°51' E 023°38'510.0
2018-Jun-12 03:30N 37°46' E 023°41'5 9.6
2018-Jun-12 03:00N 37°42' E 023°44'5 9.5
2018-Jun-12 02:30N 37°39' E 023°49'22 9.8
2018-Jun-12 00:14N 37°43' E 024°17'  
2018-Jun-09 04:50N 38°52' E 024°00'710.3
2018-Jun-09 04:11N 38°48' E 024°07'5 9.9
2018-Jun-09 03:44N 38°45' E 024°12'3 9.8
2018-Jun-09 03:26N 38°44' E 024°15'14 9.6
2018-Jun-09 02:00N 38°32' E 024°25'57 8.5
2018-Jun-08 19:18N 37°37' E 024°05'310.9
2018-Jun-08 19:00N 37°37' E 024°01'510.7
2018-Jun-08 18:30N 37°37' E 023°54'510.4
2018-Jun-08 18:01N 37°38' E 023°48'510.1
2018-Jun-08 17:31N 37°40' E 023°43'510.1
2018-Jun-08 17:01N 37°45' E 023°40'510.1
2018-Jun-08 16:30N 37°50' E 023°37'510.0
2018-Jun-08 16:01N 37°54' E 023°37'4 8.3
2018-Jun-08 15:30N 37°57' E 023°33'4 7.9
2018-Jun-08 15:01N 38°01' E 023°35'0 0.2
2018-Jun-08 12:09N 38°01' E 023°36'0 0.0
2018-Jun-08 06:24N 38°01' E 023°36'0 0.0
2018-Jun-08 04:18N 38°01' E 023°36'0 0.0
2018-Jun-08 02:36N 38°01' E 023°36'0 0.0
2018-Jun-07 22:48N 38°01' E 023°36'0 0.0
2018-Jun-07 19:51N 38°01' E 023°36'0 0.0
2018-Jun-07 19:21N 38°01' E 023°36'0 0.0
2018-Jun-07 18:57N 38°01' E 023°36'0 0.0
2018-Jun-07 17:57N 38°01' E 023°36'0 0.0
2018-Jun-07 17:12N 38°01' E 023°36'0 0.0
2018-Jun-07 16:54N 38°01' E 023°36'0 0.0
2018-Jun-07 15:51N 38°01' E 023°36'0 0.0
2018-Jun-07 15:12N 38°01' E 023°36'0 0.0
2018-Jun-07 14:57N 38°01' E 023°36'0 0.0
2018-Jun-07 14:30N 38°01' E 023°36'0 0.0
2018-Jun-07 13:57N 38°01' E 023°36'0 0.0
2018-Jun-07 13:30N 38°01' E 023°36'0 0.0
2018-Jun-07 12:54N 38°01' E 023°36'0 0.0
2018-Jun-07 12:27N 38°01' E 023°36'0 0.0
2018-Jun-07 11:54N 38°01' E 023°36'0 0.0
2018-Jun-07 11:24N 38°01' E 023°36'0 0.0
2018-Jun-07 09:48N 38°01' E 023°36'0 0.0
2018-Jun-07 07:33N 38°01' E 023°36'0 1.5
2018-Jun-07 07:27N 38°01' E 023°35'0 0.6
2018-Jun-07 06:56N 38°02' E 023°36'0 0.0
2018-Jun-07 06:17N 38°01' E 023°36'0 0.0
2018-Jun-07 05:59N 38°02' E 023°36'0 0.0
2018-Jun-07 05:29N 38°02' E 023°36'0 0.0
2018-Jun-07 04:59N 38°02' E 023°36'0 0.0
2018-Jun-07 04:11N 38°02' E 023°36'0 0.0
2018-Jun-07 03:59N 38°02' E 023°36'0 0.0
2018-Jun-07 03:20N 38°02' E 023°36'0 0.0
2018-Jun-07 02:56N 38°02' E 023°36'0 0.0
2018-Jun-07 01:29N 38°02' E 023°36'0 0.0
2018-Jun-07 00:56N 38°02' E 023°36'0 0.0
2018-Jun-07 00:20N 38°02' E 023°36'0 0.0
2018-Jun-06 23:53N 38°02' E 023°36'0 0.0
2018-Jun-06 23:20N 38°01' E 023°36'0 0.0
2018-Jun-06 22:56N 38°02' E 023°36'0 0.0
2018-Jun-06 22:29N 38°02' E 023°36'0 0.0
2018-Jun-06 21:59N 38°02' E 023°36'0 0.0
2018-Jun-06 20:38N 38°01' E 023°36'0 0.0
2018-Jun-06 20:20N 38°02' E 023°36'0 0.0
2018-Jun-06 19:59N 38°02' E 023°36'0 0.0
2018-Jun-06 19:05N 38°02' E 023°36'0 0.0
2018-Jun-06 18:35N 38°02' E 023°36'0 0.0
2018-Jun-06 18:29N 38°02' E 023°36'0 0.0
2018-Jun-06 17:59N 38°02' E 023°36'0 0.0
2018-Jun-06 17:15N 38°02' E 023°36'0 0.7
2018-Jun-06 17:00N 38°02' E 023°35'4 7.1
2018-Jun-06 16:30N 37°59' E 023°33'4 8.1
2018-Jun-06 16:00N 37°55' E 023°36'0 0.5
2018-Jun-06 15:30N 37°55' E 023°36'0 0.2
2018-Jun-06 15:00N 37°55' E 023°36'0 0.2
2018-Jun-06 14:30N 37°55' E 023°36'  

Dump ship's entire track history